createdAt,value
2023-03-22T00:00:06.567Z,8.30
2023-03-22T00:02:33.634Z,8.40
2023-03-22T00:05:01.107Z,8.40
2023-03-22T00:07:28.540Z,8.40
2023-03-22T00:09:55.466Z,8.40
2023-03-22T00:12:22.416Z,8.40
2023-03-22T00:14:49.449Z,8.50
2023-03-22T00:17:16.304Z,8.60
2023-03-22T00:19:44.852Z,8.60
2023-03-22T00:22:11.789Z,8.60
2023-03-22T00:24:38.696Z,8.60
2023-03-22T00:27:05.564Z,8.50
2023-03-22T00:29:32.424Z,8.50
2023-03-22T00:31:59.377Z,8.40
2023-03-22T00:34:32.244Z,8.40
2023-03-22T00:36:59.773Z,8.40
2023-03-22T00:39:26.973Z,8.50
2023-03-22T00:41:54.030Z,8.50
2023-03-22T00:44:21.236Z,8.50
2023-03-22T00:46:48.086Z,8.50
2023-03-22T00:49:16.000Z,8.50
2023-03-22T00:51:42.938Z,8.50
2023-03-22T00:54:09.820Z,8.50
2023-03-22T00:56:38.109Z,8.40
2023-03-22T00:59:05.542Z,8.30
2023-03-22T01:01:32.920Z,8.40
2023-03-22T01:04:00.157Z,8.40
2023-03-22T01:06:27.046Z,8.50
2023-03-22T01:08:55.010Z,8.50
2023-03-22T01:11:21.898Z,8.50
2023-03-22T01:13:49.582Z,8.40
2023-03-22T01:16:17.993Z,8.30
2023-03-22T01:18:45.345Z,8.20
2023-03-22T01:21:13.023Z,8.10
2023-03-22T01:23:39.895Z,8.00
2023-03-22T01:26:07.133Z,7.90
2023-03-22T01:28:34.080Z,7.90
2023-03-22T01:31:03.905Z,8.00
2023-03-22T01:33:31.837Z,8.00
2023-03-22T01:35:58.799Z,8.10
2023-03-22T01:38:25.798Z,8.10
2023-03-22T01:40:52.681Z,8.10
2023-03-22T01:43:19.559Z,8.00
2023-03-22T01:45:53.125Z,8.00
2023-03-22T01:48:34.103Z,7.90
2023-03-22T01:51:21.155Z,7.90
2023-03-22T01:54:20.984Z,7.80
2023-03-22T01:56:50.200Z,7.70
2023-03-22T01:59:17.150Z,7.70
2023-03-22T02:01:46.812Z,7.70
2023-03-22T02:04:25.193Z,7.70
2023-03-22T02:06:55.510Z,7.60
2023-03-22T02:09:22.381Z,7.70
2023-03-22T02:12:18.205Z,7.70
2023-03-22T02:15:11.265Z,7.70
2023-03-22T02:18:17.190Z,7.70
2023-03-22T02:21:56.079Z,7.60
2023-03-22T02:25:31.459Z,7.50
2023-03-22T02:28:28.919Z,7.50
2023-03-22T02:32:01.137Z,7.40
2023-03-22T02:35:15.774Z,7.40
2023-03-22T02:38:24.654Z,7.40
2023-03-22T02:41:11.878Z,7.40
2023-03-22T02:44:22.094Z,7.30
2023-03-22T02:47:10.681Z,7.20
2023-03-22T02:50:02.308Z,7.20
2023-03-22T02:53:08.902Z,7.10
2023-03-22T02:55:50.970Z,7.00
2023-03-22T02:58:39.187Z,7.10
2023-03-22T03:01:18.044Z,7.10
2023-03-22T03:03:50.594Z,7.00
2023-03-22T03:06:25.627Z,6.90
2023-03-22T03:08:57.831Z,6.90
2023-03-22T03:11:25.125Z,6.90
2023-03-22T03:13:52.044Z,6.80
2023-03-22T03:16:27.425Z,6.80
2023-03-22T03:19:35.029Z,6.70
2023-03-22T03:22:47.035Z,6.60
2023-03-22T03:25:38.255Z,6.50
2023-03-22T03:28:22.826Z,6.30
2023-03-22T03:31:07.974Z,6.20
2023-03-22T03:33:52.042Z,6.20
2023-03-22T03:36:23.104Z,6.20
2023-03-22T03:38:55.378Z,6.10
2023-03-22T03:41:30.160Z,6.00
2023-03-22T03:43:59.576Z,5.80
2023-03-22T03:46:28.931Z,5.80
2023-03-22T03:48:58.937Z,5.70
2023-03-22T03:51:28.251Z,5.60
2023-03-22T03:53:55.197Z,5.60
2023-03-22T03:56:22.084Z,5.50
2023-03-22T03:58:48.941Z,5.40
2023-03-22T04:01:15.926Z,5.30
2023-03-22T04:03:42.783Z,5.20
2023-03-22T04:06:09.794Z,5.20
2023-03-22T04:08:36.647Z,5.10
2023-03-22T04:11:03.511Z,5.20
2023-03-22T04:13:30.422Z,5.30
2023-03-22T04:15:57.918Z,5.20
2023-03-22T04:18:24.812Z,5.30
2023-03-22T04:20:53.385Z,5.30
2023-03-22T04:23:22.481Z,5.20
2023-03-22T04:25:50.318Z,5.10
2023-03-22T04:28:19.634Z,5.10
2023-03-22T04:30:51.858Z,5.20
2023-03-22T04:33:22.672Z,5.10
2023-03-22T04:35:50.331Z,5.10
2023-03-22T04:38:18.145Z,5.10
2023-03-22T04:40:46.596Z,5.10
2023-03-22T04:43:15.559Z,5.00
2023-03-22T04:45:42.506Z,5.00
2023-03-22T04:48:10.515Z,4.90
2023-03-22T04:50:40.092Z,4.90
2023-03-22T04:53:08.109Z,4.90
2023-03-22T04:55:35.321Z,5.00
2023-03-22T04:58:02.516Z,5.00
2023-03-22T05:00:30.236Z,5.00
2023-03-22T05:02:58.355Z,5.20
2023-03-22T05:05:25.340Z,5.10
2023-03-22T05:07:52.331Z,5.10
2023-03-22T05:10:19.252Z,5.10
2023-03-22T05:12:46.108Z,5.10
2023-03-22T05:15:14.007Z,5.10
2023-03-22T05:17:41.039Z,5.10
2023-03-22T05:20:09.830Z,5.10
2023-03-22T05:22:41.410Z,5.10
2023-03-22T05:25:10.629Z,5.10
2023-03-22T05:27:38.744Z,5.00
2023-03-22T05:30:07.723Z,4.90
2023-03-22T05:32:37.371Z,5.00
2023-03-22T05:35:05.265Z,5.20
2023-03-22T05:37:32.132Z,5.30
2023-03-22T05:39:59.003Z,5.40
2023-03-22T05:42:26.568Z,5.40
2023-03-22T05:44:53.446Z,5.30
2023-03-22T05:47:20.874Z,5.30
2023-03-22T05:49:47.766Z,5.30
2023-03-22T05:52:14.651Z,5.40
2023-03-22T05:54:41.676Z,5.50
2023-03-22T05:57:08.552Z,5.60
2023-03-22T05:59:35.529Z,5.70
2023-03-22T06:02:02.461Z,5.80
2023-03-22T06:04:30.260Z,5.80
2023-03-22T06:06:57.160Z,5.90
2023-03-22T06:09:24.071Z,6.00
2023-03-22T06:11:51.191Z,6.10
2023-03-22T06:14:18.074Z,6.20
2023-03-22T06:16:45.000Z,6.30
2023-03-22T06:19:11.943Z,6.40
2023-03-22T06:21:38.798Z,6.50
2023-03-22T06:24:06.119Z,6.60
2023-03-22T06:26:33.065Z,6.70
2023-03-22T06:29:00.122Z,6.70
2023-03-22T06:31:27.070Z,6.80
2023-03-22T06:33:55.852Z,6.90
2023-03-22T06:36:22.883Z,7.00
2023-03-22T06:38:49.743Z,7.10
2023-03-22T06:41:16.608Z,7.20
2023-03-22T06:43:43.481Z,7.40
2023-03-22T06:46:10.353Z,7.70
2023-03-22T06:48:37.256Z,7.90
2023-03-22T06:51:04.503Z,8.20
2023-03-22T06:53:31.450Z,8.50
2023-03-22T06:55:58.413Z,8.70
2023-03-22T06:58:25.621Z,9.00
2023-03-22T07:00:54.920Z,9.30
2023-03-22T07:03:21.759Z,9.60
2023-03-22T07:05:48.705Z,9.80
2023-03-22T07:08:16.074Z,10.00
2023-03-22T07:10:43.761Z,10.10
2023-03-22T07:13:10.737Z,10.30
2023-03-22T07:15:37.662Z,10.50
2023-03-22T07:18:04.703Z,10.70
2023-03-22T07:20:33.861Z,11.00
2023-03-22T07:23:00.745Z,11.20
2023-03-22T07:25:27.821Z,11.60
2023-03-22T07:27:54.671Z,11.90
2023-03-22T07:30:21.566Z,12.20
2023-03-22T07:32:48.472Z,12.50
2023-03-22T07:35:16.919Z,12.60
2023-03-22T07:37:44.218Z,12.70
2023-03-22T07:40:13.065Z,13.00
2023-03-22T07:42:39.959Z,13.40
2023-03-22T07:45:07.990Z,13.80
2023-03-22T07:47:41.157Z,14.10
2023-03-22T07:50:12.305Z,14.60
2023-03-22T07:52:43.853Z,15.10
2023-03-22T07:55:14.762Z,15.70
2023-03-22T07:57:41.830Z,15.90
2023-03-22T08:00:10.477Z,16.20
2023-03-22T08:02:38.670Z,16.80
2023-03-22T08:05:07.212Z,17.00
2023-03-22T08:07:34.376Z,17.20
2023-03-22T08:10:01.305Z,17.70
2023-03-22T08:12:28.526Z,17.60
2023-03-22T08:14:55.529Z,17.70
2023-03-22T08:17:22.493Z,17.90
2023-03-22T08:19:49.978Z,17.90
2023-03-22T08:22:17.014Z,18.00
2023-03-22T08:24:43.958Z,18.10
2023-03-22T08:27:12.108Z,18.40
2023-03-22T08:29:39.005Z,18.80
2023-03-22T08:32:06.322Z,18.90
2023-03-22T08:34:38.412Z,19.10
2023-03-22T08:37:10.498Z,19.20
2023-03-22T08:39:38.103Z,19.50
2023-03-22T08:42:05.574Z,19.80
2023-03-22T08:44:32.517Z,19.90
2023-03-22T08:47:00.704Z,19.80
2023-03-22T08:49:28.720Z,19.40
2023-03-22T08:51:57.598Z,19.70
2023-03-22T08:54:24.937Z,20.00
2023-03-22T08:56:51.843Z,20.40
2023-03-22T08:59:18.763Z,21.40
2023-03-22T09:03:41.360Z,21.60
2023-03-22T09:06:10.625Z,21.70
2023-03-22T09:08:38.264Z,22.30
2023-03-22T09:11:09.623Z,22.00
2023-03-22T09:13:37.093Z,21.70
2023-03-22T09:16:08.613Z,21.70
2023-03-22T09:18:38.076Z,21.50
2023-03-22T09:21:07.486Z,21.70
2023-03-22T09:23:37.814Z,22.00
2023-03-22T09:26:08.808Z,21.50
2023-03-22T09:28:36.618Z,21.40
2023-03-22T09:31:09.325Z,21.20
2023-03-22T09:33:41.217Z,21.50
2023-03-22T09:36:11.894Z,21.90
2023-03-22T09:38:41.201Z,22.20
2023-03-22T09:41:22.322Z,22.40
2023-03-22T09:43:59.461Z,22.40
2023-03-22T09:46:52.281Z,21.70
2023-03-22T09:49:28.698Z,22.30
2023-03-22T09:51:56.819Z,22.90
2023-03-22T09:54:40.209Z,23.20
2023-03-22T09:57:37.333Z,23.20
2023-03-22T10:00:24.489Z,23.30
2023-03-22T10:03:29.388Z,24.30
2023-03-22T10:06:20.815Z,24.00
2023-03-22T10:09:34.228Z,24.30
2023-03-22T10:12:29.994Z,25.30
2023-03-22T10:15:27.469Z,25.60
2023-03-22T10:17:59.289Z,26.00
2023-03-22T10:20:58.993Z,26.10
2023-03-22T10:23:57.028Z,26.40
2023-03-22T10:26:36.865Z,26.20
2023-03-22T10:29:38.296Z,25.80
2023-03-22T10:32:16.364Z,25.50
2023-03-22T10:34:44.664Z,25.40
2023-03-22T10:37:28.014Z,25.60
2023-03-22T10:39:59.802Z,25.40
2023-03-22T10:42:31.373Z,25.10
2023-03-22T10:45:07.633Z,24.90
2023-03-22T10:48:05.942Z,25.70
2023-03-22T10:50:45.435Z,24.80
2023-03-22T10:53:47.364Z,23.20
2023-03-22T10:56:19.949Z,21.90
2023-03-22T10:58:50.536Z,22.40
2023-03-22T11:01:37.643Z,24.60
2023-03-22T11:04:11.091Z,25.70
2023-03-22T11:06:56.025Z,25.70
2023-03-22T11:09:24.857Z,25.80
2023-03-22T11:11:58.918Z,26.80
2023-03-22T11:14:41.975Z,26.80
2023-03-22T11:17:25.295Z,26.60
2023-03-22T11:20:07.803Z,27.00
2023-03-22T11:22:45.630Z,26.00
2023-03-22T11:25:27.543Z,25.10
2023-03-22T11:28:04.479Z,24.80
2023-03-22T11:30:35.857Z,25.50
2023-03-22T11:33:21.378Z,26.00
2023-03-22T11:35:57.859Z,26.10
2023-03-22T11:38:38.988Z,26.90
2023-03-22T11:41:30.694Z,28.00
2023-03-22T11:44:05.851Z,29.00
2023-03-22T11:46:36.535Z,29.80
2023-03-22T11:49:17.642Z,29.60
2023-03-22T11:51:45.861Z,29.40
2023-03-22T11:54:34.154Z,29.60
2023-03-22T11:57:10.567Z,29.60
2023-03-22T11:59:46.420Z,28.80
2023-03-22T12:02:34.378Z,28.50
2023-03-22T12:05:33.699Z,29.30
2023-03-22T12:08:27.210Z,31.10
2023-03-22T12:11:07.399Z,31.70
2023-03-22T12:13:51.364Z,30.00
2023-03-22T12:16:31.874Z,28.00
2023-03-22T12:19:42.746Z,27.30
2023-03-22T12:22:18.099Z,28.40
2023-03-22T12:24:46.127Z,28.70
2023-03-22T12:27:24.420Z,28.60
2023-03-22T12:30:08.444Z,28.20
2023-03-22T12:32:44.442Z,28.00
2023-03-22T12:35:31.261Z,27.40
2023-03-22T12:38:12.105Z,28.30
2023-03-22T12:40:43.033Z,28.60
2023-03-22T12:43:46.603Z,27.90
2023-03-22T12:46:44.903Z,27.70
2023-03-22T12:49:47.002Z,26.50
2023-03-22T12:52:44.724Z,26.00
2023-03-22T12:55:27.082Z,26.40
2023-03-22T12:57:55.494Z,25.90
2023-03-22T13:00:43.475Z,26.40
2023-03-22T13:03:20.894Z,26.20
2023-03-22T13:06:00.254Z,25.70
2023-03-22T13:09:35.976Z,25.40
2023-03-22T13:12:18.132Z,25.10
2023-03-22T13:14:51.268Z,25.00
2023-03-22T13:17:24.299Z,24.50
2023-03-22T13:20:07.874Z,24.40
2023-03-22T13:22:37.932Z,24.90
2023-03-22T13:25:12.833Z,25.80
2023-03-22T13:27:45.610Z,25.80
2023-03-22T13:30:20.232Z,26.30
2023-03-22T13:33:03.780Z,26.90
2023-03-22T13:35:58.830Z,25.70
2023-03-22T13:38:42.199Z,23.90
2023-03-22T13:41:28.245Z,23.30
2023-03-22T13:43:59.839Z,23.20
2023-03-22T13:46:45.533Z,24.00
2023-03-22T13:49:51.197Z,25.20
2023-03-22T13:52:35.755Z,24.80
2023-03-22T13:55:04.449Z,23.40
2023-03-22T13:58:36.282Z,22.40
2023-03-22T14:01:15.944Z,21.80
2023-03-22T14:03:49.241Z,20.80
2023-03-22T14:06:28.657Z,21.10
2023-03-22T14:09:14.958Z,21.70
2023-03-22T14:12:19.859Z,22.30
2023-03-22T14:14:56.933Z,22.40
2023-03-22T14:17:52.547Z,22.50
2023-03-22T14:20:25.298Z,22.40
